sensor_id;sensor_type;location;lat;lon;timestamp;pressure;altitude;pressure_sealevel;temperature;humidity
20009;BME280;10165;42.662;23.260;2023-09-07T00:00:16;94601.97;;;23.15;53.83
20009;BME280;10165;42.662;23.260;2023-09-07T00:02:43;94597.53;;;22.98;54.71
20009;BME280;10165;42.662;23.260;2023-09-07T00:05:10;94598.66;;;23.00;55.16
20009;BME280;10165;42.662;23.260;2023-09-07T00:07:37;94593.72;;;23.18;54.42
20009;BME280;10165;42.662;23.260;2023-09-07T00:10:04;94589.06;;;23.19;54.58
20009;BME280;10165;42.662;23.260;2023-09-07T00:12:31;94595.19;;;23.23;54.87
20009;BME280;10165;42.662;23.260;2023-09-07T00:14:58;94595.03;;;23.10;55.23
20009;BME280;10165;42.662;23.260;2023-09-07T00:17:25;94595.69;;;23.18;55.13
20009;BME280;10165;42.662;23.260;2023-09-07T00:19:52;94598.56;;;23.34;54.73
20009;BME280;10165;42.662;23.260;2023-09-07T00:22:19;94596.56;;;23.34;54.81
20009;BME280;10165;42.662;23.260;2023-09-07T00:24:45;94596.84;;;23.17;55.43
20009;BME280;10165;42.662;23.260;2023-09-07T00:27:12;94590.13;;;22.98;56.05
20009;BME280;10165;42.662;23.260;2023-09-07T00:29:39;94587.97;;;22.86;56.92
20009;BME280;10165;42.662;23.260;2023-09-07T00:32:05;94587.72;;;22.09;58.51
20009;BME280;10165;42.662;23.260;2023-09-07T00:34:33;94580.75;;;22.42;58.19
20009;BME280;10165;42.662;23.260;2023-09-07T00:37:00;94584.84;;;21.86;60.13
20009;BME280;10165;42.662;23.260;2023-09-07T00:39:29;94578.03;;;22.38;58.58
20009;BME280;10165;42.662;23.260;2023-09-07T00:41:55;94577.28;;;22.72;57.80
20009;BME280;10165;42.662;23.260;2023-09-07T00:44:22;94576.56;;;22.68;58.64
20009;BME280;10165;42.662;23.260;2023-09-07T00:46:49;94574.94;;;21.69;61.74
20009;BME280;10165;42.662;23.260;2023-09-07T00:49:15;94575.50;;;22.24;60.16
20009;BME280;10165;42.662;23.260;2023-09-07T00:51:43;94573.88;;;21.97;60.59
20009;BME280;10165;42.662;23.260;2023-09-07T00:54:11;94568.66;;;22.43;59.96
20009;BME280;10165;42.662;23.260;2023-09-07T00:56:38;94572.97;;;22.10;60.14
20009;BME280;10165;42.662;23.260;2023-09-07T00:59:07;94565.00;;;22.26;60.06
20009;BME280;10165;42.662;23.260;2023-09-07T01:01:35;94571.91;;;22.34;59.88
20009;BME280;10165;42.662;23.260;2023-09-07T01:04:02;94559.75;;;22.39;59.75
20009;BME280;10165;42.662;23.260;2023-09-07T01:06:32;94559.81;;;22.35;59.47
20009;BME280;10165;42.662;23.260;2023-09-07T01:09:15;94558.59;;;22.40;59.56
20009;BME280;10165;42.662;23.260;2023-09-07T01:11:44;94561.66;;;22.46;59.15
20009;BME280;10165;42.662;23.260;2023-09-07T01:14:11;94561.66;;;22.12;60.53
20009;BME280;10165;42.662;23.260;2023-09-07T01:16:38;94565.22;;;22.05;60.91
20009;BME280;10165;42.662;23.260;2023-09-07T01:19:07;94558.28;;;22.34;59.78
20009;BME280;10165;42.662;23.260;2023-09-07T01:21:38;94565.75;;;22.27;60.08
20009;BME280;10165;42.662;23.260;2023-09-07T01:24:09;94564.03;;;22.10;60.98
20009;BME280;10165;42.662;23.260;2023-09-07T01:26:37;94566.28;;;22.49;59.83
20009;BME280;10165;42.662;23.260;2023-09-07T01:29:07;94562.88;;;22.41;60.23
20009;BME280;10165;42.662;23.260;2023-09-07T01:31:36;94571.94;;;21.97;61.45
20009;BME280;10165;42.662;23.260;2023-09-07T01:34:05;94568.47;;;21.93;61.87
20009;BME280;10165;42.662;23.260;2023-09-07T01:36:33;94567.47;;;21.76;62.88
20009;BME280;10165;42.662;23.260;2023-09-07T01:39:00;94571.56;;;21.95;62.36
20009;BME280;10165;42.662;23.260;2023-09-07T01:41:27;94576.03;;;22.12;61.73
20009;BME280;10165;42.662;23.260;2023-09-07T01:43:55;94564.19;;;22.29;61.42
20009;BME280;10165;42.662;23.260;2023-09-07T01:46:22;94567.00;;;22.53;60.19
20009;BME280;10165;42.662;23.260;2023-09-07T01:48:49;94577.72;;;22.03;61.82
20009;BME280;10165;42.662;23.260;2023-09-07T01:51:15;94565.72;;;21.97;61.37
20009;BME280;10165;42.662;23.260;2023-09-07T01:53:42;94574.53;;;22.42;59.85
20009;BME280;10165;42.662;23.260;2023-09-07T01:56:09;94565.75;;;22.27;59.97
20009;BME280;10165;42.662;23.260;2023-09-07T01:58:36;94567.28;;;22.28;59.79
20009;BME280;10165;42.662;23.260;2023-09-07T02:01:03;94565.25;;;22.35;59.83
20009;BME280;10165;42.662;23.260;2023-09-07T02:03:30;94563.78;;;22.27;60.31
20009;BME280;10165;42.662;23.260;2023-09-07T02:05:57;94564.72;;;22.48;59.56
20009;BME280;10165;42.662;23.260;2023-09-07T02:08:24;94561.81;;;22.31;59.63
20009;BME280;10165;42.662;23.260;2023-09-07T02:10:50;94560.28;;;22.30;60.00
20009;BME280;10165;42.662;23.260;2023-09-07T02:13:17;94564.53;;;22.62;58.93
20009;BME280;10165;42.662;23.260;2023-09-07T02:15:44;94564.75;;;21.76;61.17
20009;BME280;10165;42.662;23.260;2023-09-07T02:18:11;94567.28;;;21.57;62.09
20009;BME280;10165;42.662;23.260;2023-09-07T02:20:38;94568.13;;;21.91;61.29
20009;BME280;10165;42.662;23.260;2023-09-07T02:23:05;94564.25;;;21.85;61.41
20009;BME280;10165;42.662;23.260;2023-09-07T02:25:31;94568.06;;;22.28;60.16
20009;BME280;10165;42.662;23.260;2023-09-07T02:27:58;94574.28;;;21.51;62.26
20009;BME280;10165;42.662;23.260;2023-09-07T02:30:25;94573.06;;;21.59;62.58
20009;BME280;10165;42.662;23.260;2023-09-07T02:32:52;94576.72;;;21.82;62.00
20009;BME280;10165;42.662;23.260;2023-09-07T02:35:20;94575.66;;;21.73;62.56
20009;BME280;10165;42.662;23.260;2023-09-07T02:37:46;94577.75;;;21.55;62.96
20009;BME280;10165;42.662;23.260;2023-09-07T02:40:13;94578.22;;;21.50;63.24
20009;BME280;10165;42.662;23.260;2023-09-07T02:42:42;94579.63;;;21.65;63.37
20009;BME280;10165;42.662;23.260;2023-09-07T02:45:14;94576.56;;;22.00;62.10
20009;BME280;10165;42.662;23.260;2023-09-07T02:47:40;94582.19;;;21.38;63.66
20009;BME280;10165;42.662;23.260;2023-09-07T02:50:08;94583.50;;;21.64;63.35
20009;BME280;10165;42.662;23.260;2023-09-07T02:52:35;94579.88;;;21.36;63.51
20009;BME280;10165;42.662;23.260;2023-09-07T02:55:01;94582.84;;;21.90;62.72
20009;BME280;10165;42.662;23.260;2023-09-07T02:57:29;94581.84;;;21.77;62.90
20009;BME280;10165;42.662;23.260;2023-09-07T02:59:56;94572.78;;;21.50;63.78
20009;BME280;10165;42.662;23.260;2023-09-07T03:02:22;94576.75;;;21.79;62.78
20009;BME280;10165;42.662;23.260;2023-09-07T03:04:53;94578.66;;;21.82;62.51
20009;BME280;10165;42.662;23.260;2023-09-07T03:07:21;94582.13;;;21.45;63.45
20009;BME280;10165;42.662;23.260;2023-09-07T03:09:48;94575.50;;;21.87;62.44
20009;BME280;10165;42.662;23.260;2023-09-07T03:12:15;94581.31;;;21.48;63.27
20009;BME280;10165;42.662;23.260;2023-09-07T03:14:43;94571.34;;;21.34;64.29
20009;BME280;10165;42.662;23.260;2023-09-07T03:17:10;94582.84;;;21.90;63.01
20009;BME280;10165;42.662;23.260;2023-09-07T03:19:37;94567.09;;;21.74;63.65
20009;BME280;10165;42.662;23.260;2023-09-07T03:22:29;94579.16;;;21.29;65.31
20009;BME280;10165;42.662;23.260;2023-09-07T03:24:56;94584.78;;;21.93;63.38
20009;BME280;10165;42.662;23.260;2023-09-07T03:27:23;94580.13;;;21.90;63.12
20009;BME280;10165;42.662;23.260;2023-09-07T03:29:50;94582.13;;;21.86;62.64
20009;BME280;10165;42.662;23.260;2023-09-07T03:32:18;94592.41;;;21.68;63.60
20009;BME280;10165;42.662;23.260;2023-09-07T03:34:45;94592.03;;;21.66;63.88
20009;BME280;10165;42.662;23.260;2023-09-07T03:37:11;94586.78;;;21.85;63.19
20009;BME280;10165;42.662;23.260;2023-09-07T03:39:39;94591.44;;;21.88;63.21
20009;BME280;10165;42.662;23.260;2023-09-07T03:42:06;94593.84;;;21.38;64.65
20009;BME280;10165;42.662;23.260;2023-09-07T03:44:36;94595.22;;;21.57;64.93
20009;BME280;10165;42.662;23.260;2023-09-07T03:47:03;94593.22;;;21.17;66.72
20009;BME280;10165;42.662;23.260;2023-09-07T03:49:30;94604.22;;;20.95;68.07
20009;BME280;10165;42.662;23.260;2023-09-07T03:51:57;94601.50;;;21.47;66.94
20009;BME280;10165;42.662;23.260;2023-09-07T03:54:24;94603.63;;;21.70;66.50
20009;BME280;10165;42.662;23.260;2023-09-07T03:56:50;94609.16;;;21.63;66.71
20009;BME280;10165;42.662;23.260;2023-09-07T03:59:17;94610.47;;;21.92;65.91
20009;BME280;10165;42.662;23.260;2023-09-07T04:01:44;94603.13;;;21.41;67.33
20009;BME280;10165;42.662;23.260;2023-09-07T04:04:11;94612.56;;;21.26;68.10
20009;BME280;10165;42.662;23.260;2023-09-07T04:06:37;94607.84;;;21.33;68.22
20009;BME280;10165;42.662;23.260;2023-09-07T04:09:04;94608.66;;;21.30;68.90
20009;BME280;10165;42.662;23.260;2023-09-07T04:11:54;94615.41;;;21.01;70.20
20009;BME280;10165;42.662;23.260;2023-09-07T04:14:21;94609.56;;;20.37;72.61
20009;BME280;10165;42.662;23.260;2023-09-07T04:16:48;94603.97;;;20.69;71.73
20009;BME280;10165;42.662;23.260;2023-09-07T04:19:17;94608.16;;;20.84;70.47
20009;BME280;10165;42.662;23.260;2023-09-07T04:21:43;94598.56;;;20.65;71.84
20009;BME280;10165;42.662;23.260;2023-09-07T04:24:10;94602.72;;;20.84;70.83
20009;BME280;10165;42.662;23.260;2023-09-07T04:26:37;94606.50;;;20.97;69.31
20009;BME280;10165;42.662;23.260;2023-09-07T04:29:06;94603.69;;;21.18;68.39
20009;BME280;10165;42.662;23.260;2023-09-07T04:31:34;94608.91;;;20.88;69.32
20009;BME280;10165;42.662;23.260;2023-09-07T04:34:01;94601.28;;;21.27;68.32
20009;BME280;10165;42.662;23.260;2023-09-07T04:36:29;94610.47;;;20.82;70.71
20009;BME280;10165;42.662;23.260;2023-09-07T04:38:56;94609.84;;;21.26;68.80
20009;BME280;10165;42.662;23.260;2023-09-07T04:41:24;94617.88;;;20.78;71.06
20009;BME280;10165;42.662;23.260;2023-09-07T04:43:50;94621.31;;;20.92;71.43
20009;BME280;10165;42.662;23.260;2023-09-07T04:46:21;94613.59;;;21.46;69.55
20009;BME280;10165;42.662;23.260;2023-09-07T04:48:48;94615.63;;;21.31;69.69
20009;BME280;10165;42.662;23.260;2023-09-07T04:51:15;94614.69;;;21.52;69.13
20009;BME280;10165;42.662;23.260;2023-09-07T04:53:43;94615.97;;;21.37;69.60
20009;BME280;10165;42.662;23.260;2023-09-07T04:56:09;94623.47;;;21.22;69.46
20009;BME280;10165;42.662;23.260;2023-09-07T04:58:36;94618.22;;;21.49;67.31
20009;BME280;10165;42.662;23.260;2023-09-07T05:01:07;94613.28;;;21.33;67.26
20009;BME280;10165;42.662;23.260;2023-09-07T05:03:37;94621.91;;;21.21;67.47
20009;BME280;10165;42.662;23.260;2023-09-07T05:06:06;94627.50;;;20.93;68.52
20009;BME280;10165;42.662;23.260;2023-09-07T05:08:33;94621.34;;;21.44;67.15
20009;BME280;10165;42.662;23.260;2023-09-07T05:11:03;94630.78;;;21.77;65.73
20009;BME280;10165;42.662;23.260;2023-09-07T05:13:30;94624.72;;;21.59;64.88
20009;BME280;10165;42.662;23.260;2023-09-07T05:15:59;94623.22;;;21.99;62.96
20009;BME280;10165;42.662;23.260;2023-09-07T05:18:30;94637.00;;;21.29;65.66
20009;BME280;10165;42.662;23.260;2023-09-07T05:20:57;94628.13;;;21.22;66.39
20009;BME280;10165;42.662;23.260;2023-09-07T05:23:24;94631.97;;;21.76;64.05
20009;BME280;10165;42.662;23.260;2023-09-07T05:25:53;94632.88;;;21.59;62.35
20009;BME280;10165;42.662;23.260;2023-09-07T05:28:22;94633.03;;;21.85;62.70
20009;BME280;10165;42.662;23.260;2023-09-07T05:30:48;94635.16;;;21.64;62.76
20009;BME280;10165;42.662;23.260;2023-09-07T05:33:17;94640.06;;;21.31;64.94
20009;BME280;10165;42.662;23.260;2023-09-07T05:35:45;94633.16;;;21.71;63.67
20009;BME280;10165;42.662;23.260;2023-09-07T05:38:12;94630.16;;;21.59;64.41
20009;BME280;10165;42.662;23.260;2023-09-07T05:40:43;94632.22;;;21.44;64.61
20009;BME280;10165;42.662;23.260;2023-09-07T05:43:11;94641.47;;;21.54;63.75
20009;BME280;10165;42.662;23.260;2023-09-07T05:45:40;94639.63;;;21.40;64.71
20009;BME280;10165;42.662;23.260;2023-09-07T05:48:07;94634.72;;;21.72;63.95
20009;BME280;10165;42.662;23.260;2023-09-07T05:50:37;94643.16;;;21.81;63.76
20009;BME280;10165;42.662;23.260;2023-09-07T05:53:04;94638.94;;;21.77;64.55
20009;BME280;10165;42.662;23.260;2023-09-07T05:55:31;94648.13;;;21.90;64.17
20009;BME280;10165;42.662;23.260;2023-09-07T05:57:58;94647.75;;;21.95;64.09
20009;BME280;10165;42.662;23.260;2023-09-07T06:00:26;94640.50;;;22.19;63.27
20009;BME280;10165;42.662;23.260;2023-09-07T06:02:53;94646.81;;;22.09;63.16
20009;BME280;10165;42.662;23.260;2023-09-07T06:05:20;94647.00;;;21.39;65.35
20009;BME280;10165;42.662;23.260;2023-09-07T06:07:47;94646.47;;;22.07;63.65
20009;BME280;10165;42.662;23.260;2023-09-07T06:10:14;94639.22;;;22.30;62.41
20009;BME280;10165;42.662;23.260;2023-09-07T06:12:41;94647.50;;;22.16;62.83
20009;BME280;10165;42.662;23.260;2023-09-07T06:15:08;94647.75;;;21.95;63.23
20009;BME280;10165;42.662;23.260;2023-09-07T06:17:35;94645.50;;;21.83;64.28
20009;BME280;10165;42.662;23.260;2023-09-07T06:20:03;94643.13;;;21.92;63.89
20009;BME280;10165;42.662;23.260;2023-09-07T06:22:30;94643.63;;;21.76;63.67
20009;BME280;10165;42.662;23.260;2023-09-07T06:24:56;94646.53;;;22.00;63.56
20009;BME280;10165;42.662;23.260;2023-09-07T06:27:23;94644.06;;;22.46;62.46
20009;BME280;10165;42.662;23.260;2023-09-07T06:29:50;94645.09;;;22.25;60.64
20009;BME280;10165;42.662;23.260;2023-09-07T06:32:17;94643.06;;;22.33;60.67
20009;BME280;10165;42.662;23.260;2023-09-07T06:34:45;94642.06;;;22.16;60.54
20009;BME280;10165;42.662;23.260;2023-09-07T06:37:12;94641.25;;;22.23;59.66
20009;BME280;10165;42.662;23.260;2023-09-07T06:39:39;94651.06;;;22.47;59.04
20009;BME280;10165;42.662;23.260;2023-09-07T06:42:06;94650.72;;;22.79;58.28
20009;BME280;10165;42.662;23.260;2023-09-07T06:44:37;94650.28;;;22.47;58.54
20009;BME280;10165;42.662;23.260;2023-09-07T06:47:04;94651.53;;;23.06;56.95
20009;BME280;10165;42.662;23.260;2023-09-07T06:49:31;94655.44;;;23.05;56.87
20009;BME280;10165;42.662;23.260;2023-09-07T06:51:57;94658.94;;;23.59;54.34
20009;BME280;10165;42.662;23.260;2023-09-07T06:54:24;94652.38;;;23.80;53.84
20009;BME280;10165;42.662;23.260;2023-09-07T06:56:51;94659.28;;;23.61;52.73
20009;BME280;10165;42.662;23.260;2023-09-07T06:59:18;94664.72;;;23.65;53.22
20009;BME280;10165;42.662;23.260;2023-09-07T07:01:45;94654.75;;;24.01;52.32
20009;BME280;10165;42.662;23.260;2023-09-07T07:04:12;94661.19;;;24.14;51.36
20009;BME280;10165;42.662;23.260;2023-09-07T07:06:38;94658.81;;;24.36;51.10
20009;BME280;10165;42.662;23.260;2023-09-07T07:09:05;94653.97;;;23.77;52.64
20009;BME280;10165;42.662;23.260;2023-09-07T07:11:37;94651.50;;;23.87;52.57
20009;BME280;10165;42.662;23.260;2023-09-07T07:14:05;94655.13;;;23.80;52.42
20009;BME280;10165;42.662;23.260;2023-09-07T07:16:33;94665.53;;;24.32;51.16
20009;BME280;10165;42.662;23.260;2023-09-07T07:19:00;94666.81;;;24.47;50.58
20009;BME280;10165;42.662;23.260;2023-09-07T07:21:51;94665.28;;;24.22;51.47
20009;BME280;10165;42.662;23.260;2023-09-07T07:24:19;94676.25;;;24.42;51.00
20009;BME280;10165;42.662;23.260;2023-09-07T07:26:46;94689.56;;;24.40;50.11
20009;BME280;10165;42.662;23.260;2023-09-07T07:29:13;94684.31;;;24.69;49.95
20009;BME280;10165;42.662;23.260;2023-09-07T07:31:39;94679.63;;;24.69;50.21
20009;BME280;10165;42.662;23.260;2023-09-07T07:34:06;94689.13;;;24.42;50.08
20009;BME280;10165;42.662;23.260;2023-09-07T07:36:34;94687.78;;;24.07;51.14
20009;BME280;10165;42.662;23.260;2023-09-07T07:39:01;94680.38;;;24.50;50.68
20009;BME280;10165;42.662;23.260;2023-09-07T07:41:52;94687.13;;;24.22;50.97
20009;BME280;10165;42.662;23.260;2023-09-07T07:44:18;94693.13;;;23.91;52.00
20009;BME280;10165;42.662;23.260;2023-09-07T07:46:45;94704.94;;;24.31;50.08
20009;BME280;10165;42.662;23.260;2023-09-07T07:49:12;94695.28;;;22.96;53.73
20009;BME280;10165;42.662;23.260;2023-09-07T07:51:39;94688.69;;;23.20;54.72
20009;BME280;10165;42.662;23.260;2023-09-07T07:54:05;94695.56;;;23.85;53.29
20009;BME280;10165;42.662;23.260;2023-09-07T07:56:56;94697.44;;;24.11;52.57
20009;BME280;10165;42.662;23.260;2023-09-07T07:59:22;94702.13;;;24.34;52.21
20009;BME280;10165;42.662;23.260;2023-09-07T08:01:49;94703.34;;;23.87;54.02
20009;BME280;10165;42.662;23.260;2023-09-07T08:04:16;94698.44;;;24.24;52.94
20009;BME280;10165;42.662;23.260;2023-09-07T08:06:43;94697.47;;;24.54;51.53
20009;BME280;10165;42.662;23.260;2023-09-07T08:09:10;94700.75;;;24.26;52.76
20009;BME280;10165;42.662;23.260;2023-09-07T08:11:36;94695.75;;;23.48;53.95
20009;BME280;10165;42.662;23.260;2023-09-07T08:14:04;94697.47;;;23.61;53.46
20009;BME280;10165;42.662;23.260;2023-09-07T08:16:33;94690.34;;;23.94;52.78
20009;BME280;10165;42.662;23.260;2023-09-07T08:19:00;94697.22;;;23.79;53.39
20009;BME280;10165;42.662;23.260;2023-09-07T08:21:27;94696.63;;;23.91;52.31
20009;BME280;10165;42.662;23.260;2023-09-07T08:23:59;94693.16;;;24.57;50.94
20009;BME280;10165;42.662;23.260;2023-09-07T08:26:26;94698.72;;;24.93;49.84
20009;BME280;10165;42.662;23.260;2023-09-07T08:28:53;94689.41;;;24.90;49.87
20009;BME280;10165;42.662;23.260;2023-09-07T08:31:19;94692.47;;;24.53;50.11
20009;BME280;10165;42.662;23.260;2023-09-07T08:33:49;94687.03;;;24.49;49.92
20009;BME280;10165;42.662;23.260;2023-09-07T08:36:18;94702.69;;;24.49;49.93
20009;BME280;10165;42.662;23.260;2023-09-07T08:38:44;94702.97;;;24.31;51.01
20009;BME280;10165;42.662;23.260;2023-09-07T08:41:11;94687.38;;;24.94;48.12
20009;BME280;10165;42.662;23.260;2023-09-07T08:43:45;94692.66;;;25.21;47.54
20009;BME280;10165;42.662;23.260;2023-09-07T08:46:15;94693.59;;;24.75;48.10
20009;BME280;10165;42.662;23.260;2023-09-07T08:48:43;94690.63;;;25.25;47.75
20009;BME280;10165;42.662;23.260;2023-09-07T08:51:11;94692.63;;;25.41;46.50
20009;BME280;10165;42.662;23.260;2023-09-07T08:53:39;94686.25;;;25.28;46.23
20009;BME280;10165;42.662;23.260;2023-09-07T08:56:07;94691.47;;;25.74;44.59
20009;BME280;10165;42.662;23.260;2023-09-07T08:58:37;94687.97;;;24.62;46.53
20009;BME280;10165;42.662;23.260;2023-09-07T09:01:04;94682.75;;;24.91;46.27
20009;BME280;10165;42.662;23.260;2023-09-07T09:03:35;94683.34;;;24.79;47.44
20009;BME280;10165;42.662;23.260;2023-09-07T09:06:03;94686.50;;;24.77;47.75
20009;BME280;10165;42.662;23.260;2023-09-07T09:08:42;94691.13;;;25.00;47.12
20009;BME280;10165;42.662;23.260;2023-09-07T09:11:09;94689.78;;;24.69;46.75
20009;BME280;10165;42.662;23.260;2023-09-07T09:13:37;94676.53;;;25.43;46.30
20009;BME280;10165;42.662;23.260;2023-09-07T09:16:28;94687.47;;;24.67;46.00
20009;BME280;10165;42.662;23.260;2023-09-07T09:19:19;94682.44;;;24.23;46.83
20009;BME280;10165;42.662;23.260;2023-09-07T09:22:00;94680.47;;;24.47;46.08
20009;BME280;10165;42.662;23.260;2023-09-07T09:24:27;94676.47;;;24.71;45.36
20009;BME280;10165;42.662;23.260;2023-09-07T09:26:53;94676.34;;;24.78;45.21
20009;BME280;10165;42.662;23.260;2023-09-07T09:29:23;94680.94;;;24.61;45.59
20009;BME280;10165;42.662;23.260;2023-09-07T09:31:51;94677.03;;;25.38;45.35
20009;BME280;10165;42.662;23.260;2023-09-07T09:34:18;94677.09;;;25.54;43.98
20009;BME280;10165;42.662;23.260;2023-09-07T09:37:13;94677.59;;;25.49;43.18
20009;BME280;10165;42.662;23.260;2023-09-07T09:40:09;94672.41;;;25.87;43.17
20009;BME280;10165;42.662;23.260;2023-09-07T09:42:36;94670.88;;;26.02;43.01
20009;BME280;10165;42.662;23.260;2023-09-07T09:45:05;94665.75;;;25.00;44.79
20009;BME280;10165;42.662;23.260;2023-09-07T09:47:37;94667.44;;;25.13;44.49
20009;BME280;10165;42.662;23.260;2023-09-07T09:50:06;94655.88;;;25.58;44.38
20009;BME280;10165;42.662;23.260;2023-09-07T09:52:34;94660.91;;;25.07;43.53
20009;BME280;10165;42.662;23.260;2023-09-07T09:55:07;94663.56;;;25.47;43.38
20009;BME280;10165;42.662;23.260;2023-09-07T09:57:40;94663.00;;;25.55;42.33
20009;BME280;10165;42.662;23.260;2023-09-07T10:00:08;94661.28;;;25.94;42.01
20009;BME280;10165;42.662;23.260;2023-09-07T10:02:47;94670.97;;;25.82;41.90
20009;BME280;10165;42.662;23.260;2023-09-07T10:05:16;94656.63;;;26.07;42.02
20009;BME280;10165;42.662;23.260;2023-09-07T10:07:44;94659.19;;;26.30;40.53
20009;BME280;10165;42.662;23.260;2023-09-07T10:10:15;94653.28;;;26.15;41.01
20009;BME280;10165;42.662;23.260;2023-09-07T10:12:51;94652.38;;;25.74;41.43
20009;BME280;10165;42.662;23.260;2023-09-07T10:15:27;94662.31;;;24.37;43.07
20009;BME280;10165;42.662;23.260;2023-09-07T10:20:57;94651.41;;;26.12;41.04
20009;BME280;10165;42.662;23.260;2023-09-07T10:23:42;94650.44;;;25.74;41.37
20009;BME280;10165;42.662;23.260;2023-09-07T10:26:14;94648.88;;;26.05;41.14
20009;BME280;10165;42.662;23.260;2023-09-07T10:28:43;94648.69;;;25.96;41.25
20009;BME280;10165;42.662;23.260;2023-09-07T10:31:16;94636.38;;;26.21;40.93
20009;BME280;10165;42.662;23.260;2023-09-07T10:33:44;94629.78;;;25.37;42.22
20009;BME280;10165;42.662;23.260;2023-09-07T10:36:40;94635.88;;;25.61;41.64
20009;BME280;10165;42.662;23.260;2023-09-07T10:39:08;94632.94;;;26.00;41.61
20009;BME280;10165;42.662;23.260;2023-09-07T10:41:43;94632.53;;;26.47;40.80
20009;BME280;10165;42.662;23.260;2023-09-07T10:44:11;94637.34;;;26.43;40.02
20009;BME280;10165;42.662;23.260;2023-09-07T10:46:38;94636.03;;;26.02;40.35
20009;BME280;10165;42.662;23.260;2023-09-07T10:49:11;94641.94;;;25.68;42.32
20009;BME280;10165;42.662;23.260;2023-09-07T10:51:42;94638.28;;;25.59;41.94
20009;BME280;10165;42.662;23.260;2023-09-07T10:54:17;94634.19;;;25.83;42.26
20009;BME280;10165;42.662;23.260;2023-09-07T10:56:45;94633.44;;;26.11;40.94
20009;BME280;10165;42.662;23.260;2023-09-07T10:59:13;94638.09;;;25.98;40.12
20009;BME280;10165;42.662;23.260;2023-09-07T11:01:41;94636.47;;;25.85;40.70
20009;BME280;10165;42.662;23.260;2023-09-07T11:04:08;94630.81;;;26.24;40.46
20009;BME280;10165;42.662;23.260;2023-09-07T11:06:41;94628.00;;;25.95;41.10
20009;BME280;10165;42.662;23.260;2023-09-07T11:09:09;94637.34;;;25.65;41.35
20009;BME280;10165;42.662;23.260;2023-09-07T11:11:38;94637.09;;;25.60;41.36
20009;BME280;10165;42.662;23.260;2023-09-07T11:14:05;94628.53;;;25.90;41.23
20009;BME280;10165;42.662;23.260;2023-09-07T11:16:56;94619.59;;;26.19;40.71
20009;BME280;10165;42.662;23.260;2023-09-07T11:19:23;94622.50;;;26.11;40.47
20009;BME280;10165;42.662;23.260;2023-09-07T11:21:53;94622.38;;;26.31;40.03
20009;BME280;10165;42.662;23.260;2023-09-07T11:24:20;94622.97;;;26.39;40.09
20009;BME280;10165;42.662;23.260;2023-09-07T11:26:47;94627.72;;;25.25;41.38
20009;BME280;10165;42.662;23.260;2023-09-07T11:29:15;94627.44;;;25.19;42.18
20009;BME280;10165;42.662;23.260;2023-09-07T11:31:43;94623.91;;;25.71;41.42
20009;BME280;10165;42.662;23.260;2023-09-07T11:34:12;94618.38;;;26.03;40.80
20009;BME280;10165;42.662;23.260;2023-09-07T11:36:42;94622.97;;;25.61;41.41
20009;BME280;10165;42.662;23.260;2023-09-07T11:39:10;94624.34;;;25.86;41.09
20009;BME280;10165;42.662;23.260;2023-09-07T11:41:43;94617.75;;;25.83;40.86
20009;BME280;10165;42.662;23.260;2023-09-07T11:44:11;94615.94;;;25.77;41.28
20009;BME280;10165;42.662;23.260;2023-09-07T11:46:39;94616.13;;;26.14;40.72
20009;BME280;10165;42.662;23.260;2023-09-07T11:49:07;94613.59;;;26.24;40.62
20009;BME280;10165;42.662;23.260;2023-09-07T11:51:36;94610.75;;;25.82;41.53
20009;BME280;10165;42.662;23.260;2023-09-07T11:54:06;94609.69;;;25.92;41.04
20009;BME280;10165;42.662;23.260;2023-09-07T11:56:32;94622.03;;;25.00;42.24
20009;BME280;10165;42.662;23.260;2023-09-07T11:58:59;94621.84;;;24.71;42.93
20009;BME280;10165;42.662;23.260;2023-09-07T12:01:26;94612.94;;;24.87;43.10
20009;BME280;10165;42.662;23.260;2023-09-07T12:03:54;94615.69;;;24.87;42.94
20009;BME280;10165;42.662;23.260;2023-09-07T12:06:21;94615.72;;;24.83;43.21
20009;BME280;10165;42.662;23.260;2023-09-07T12:09:04;94606.41;;;24.61;43.90
20009;BME280;10165;42.662;23.260;2023-09-07T12:11:34;94620.84;;;24.61;43.35
20009;BME280;10165;42.662;23.260;2023-09-07T12:14:01;94615.28;;;25.04;42.75
20009;BME280;10165;42.662;23.260;2023-09-07T12:16:52;94612.50;;;25.24;42.67
20009;BME280;10165;42.662;23.260;2023-09-07T12:19:19;94600.22;;;25.48;42.31
20009;BME280;10165;42.662;23.260;2023-09-07T12:21:46;94606.16;;;25.11;42.72
20009;BME280;10165;42.662;23.260;2023-09-07T12:24:15;94601.41;;;24.95;42.69
20009;BME280;10165;42.662;23.260;2023-09-07T12:26:42;94607.59;;;25.15;42.61
20009;BME280;10165;42.662;23.260;2023-09-07T12:29:33;94605.19;;;25.37;41.94
20009;BME280;10165;42.662;23.260;2023-09-07T12:32:00;94596.50;;;25.22;41.96
20009;BME280;10165;42.662;23.260;2023-09-07T12:34:27;94605.31;;;25.46;41.62
20009;BME280;10165;42.662;23.260;2023-09-07T12:36:57;94603.44;;;25.27;41.95
20009;BME280;10165;42.662;23.260;2023-09-07T12:39:24;94601.69;;;25.53;40.97
20009;BME280;10165;42.662;23.260;2023-09-07T12:41:51;94597.72;;;25.21;41.95
20009;BME280;10165;42.662;23.260;2023-09-07T12:44:17;94599.53;;;25.77;41.05
20009;BME280;10165;42.662;23.260;2023-09-07T12:46:44;94607.22;;;25.33;41.53
20009;BME280;10165;42.662;23.260;2023-09-07T12:49:11;94611.25;;;25.61;41.47
20009;BME280;10165;42.662;23.260;2023-09-07T12:51:38;94606.63;;;25.90;41.19
20009;BME280;10165;42.662;23.260;2023-09-07T12:54:05;94613.38;;;25.69;40.86
20009;BME280;10165;42.662;23.260;2023-09-07T12:56:36;94619.81;;;25.63;41.24
20009;BME280;10165;42.662;23.260;2023-09-07T12:59:03;94617.03;;;25.95;40.59
20009;BME280;10165;42.662;23.260;2023-09-07T13:01:30;94620.44;;;25.35;41.81